Beaufort, SC (29903)

12:38 PM EST on December 09, 2016 (GMT -0500)
Downtown Marina Docks | | Change Station

Elev 0 ft 32.43 °N, 80.67 °W | Updated 36 seconds ago

Haze
Haze
52.3 °F
Feels Like 52.3 °F
N
7.3
Wind Variable Wind from NW

Today
High -- | Low -- °F
--% Chance of Precip.
Yesterday
High -- | Low -- °F
Precip. -- in
Pressure 30.39 in
Visibility 5.0 miles
Clouds Clear
Dew Point 25 °F
Humidity 34%
Rainfall 0.00 in
Snow Depth Not available.
7:13 AM 5:17 PM
Waxing Gibbous, 75% visible
METAR KARW 091735Z AUTO 32008KT 5SM HZ CLR 09/M05 A3039 RMK AO2
Pressure 30.39 in
Visibility 5.0 miles
Clouds Clear
Dew Point 25 °F
Humidity 34%
Rainfall 0.00 in
Snow Depth Not available.
7:13 AM 5:17 PM
Waxing Gibbous, 75% visible
METAR KARW 091735Z AUTO 32008KT 5SM HZ CLR 09/M05 A3039 RMK AO2

10-Day Weather Forecast

Almanac

Astronomy

Dec. 09, 2016 Rise Set
Actual Time
Civil Twilight
Nautical Twilight
Astronomical Twilight
Moon
Length of Visible Light
Length of Day
Tomorrow will be .
, % of the Moon is Illuminated

Today's Extremes

State Highs State Lows

Community

WunderPhotos

Upload Photos

1,956,462 photos uploaded!

WunderBlog® & News

Nearby

Air Quality

  Air Quality AQ Index Pollutant
Not available.

Snow Depth

Station Depth Elevation

Earthquake Activity

City Distance Mag. Time & Date
Minimum magnitude displayed is 2.5.

Coastal Water Temperatures

Place Temperature

Stations

Nearby Weather Stations

Station Location Temp. Windchill Dew Point Humidity Wind Precip. Elev Updated Type
                   

Watches & Warnings

There are currently no watches in effect.